createdAt,value
2023-02-22T00:00:52.473Z,70.48
2023-02-22T00:03:24.337Z,70.35
2023-02-22T00:05:57.719Z,70.68
2023-02-22T00:08:29.817Z,70.60
2023-02-22T00:11:08.395Z,70.85
2023-02-22T00:13:36.832Z,70.78
2023-02-22T00:16:03.577Z,70.71
2023-02-22T00:18:29.989Z,70.66
2023-02-22T00:21:00.210Z,70.51
2023-02-22T00:23:29.025Z,71.01
2023-02-22T00:25:57.055Z,70.65
2023-02-22T00:28:23.626Z,70.63
2023-02-22T00:30:50.784Z,70.87
2023-02-22T00:33:17.876Z,71.05
2023-02-22T00:35:47.811Z,71.18
2023-02-22T00:38:16.019Z,71.14
2023-02-22T00:40:42.808Z,71.20
2023-02-22T00:43:09.218Z,71.20
2023-02-22T00:45:38.713Z,71.51
2023-02-22T00:48:06.311Z,71.68
2023-02-22T00:50:33.138Z,71.62
2023-02-22T00:53:00.318Z,71.48
2023-02-22T00:55:30.111Z,71.67
2023-02-22T00:57:57.551Z,71.64
2023-02-22T01:00:32.441Z,71.52
2023-02-22T01:02:59.415Z,71.67
2023-02-22T01:05:29.321Z,71.85
2023-02-22T01:07:57.764Z,72.08
2023-02-22T01:10:27.432Z,72.21
2023-02-22T01:12:53.963Z,72.28
2023-02-22T01:15:23.170Z,72.20
2023-02-22T01:17:52.983Z,72.32
2023-02-22T01:20:22.152Z,72.24
2023-02-22T01:22:50.928Z,72.45
2023-02-22T01:25:21.159Z,72.22
2023-02-22T01:27:49.662Z,71.90
2023-02-22T01:30:21.085Z,72.46
2023-02-22T01:32:48.010Z,72.58
2023-02-22T01:35:17.868Z,72.64
2023-02-22T01:37:45.050Z,72.79
2023-02-22T01:40:18.105Z,72.76
2023-02-22T01:42:44.491Z,72.70
2023-02-22T01:45:29.627Z,72.79
2023-02-22T01:48:02.565Z,72.69
2023-02-22T01:50:28.944Z,72.68
2023-02-22T01:52:55.764Z,72.84
2023-02-22T01:55:22.817Z,72.83
2023-02-22T01:57:49.556Z,73.06
2023-02-22T02:00:20.221Z,73.25
2023-02-22T02:02:50.857Z,73.13
2023-02-22T02:05:17.448Z,73.34
2023-02-22T02:07:46.051Z,73.43
2023-02-22T02:10:14.836Z,73.33
2023-02-22T02:12:47.616Z,73.41
2023-02-22T02:15:24.893Z,73.33
2023-02-22T02:17:54.954Z,73.14
2023-02-22T02:20:29.422Z,73.15
2023-02-22T02:23:27.900Z,73.12
2023-02-22T02:26:27.057Z,73.27
2023-02-22T02:28:56.284Z,73.44
2023-02-22T02:31:48.761Z,73.48
2023-02-22T02:34:43.624Z,73.93
2023-02-22T02:37:10.970Z,74.06
2023-02-22T02:39:46.611Z,74.01
2023-02-22T02:42:18.086Z,74.09
2023-02-22T02:45:01.998Z,73.99
2023-02-22T02:47:34.154Z,74.01
2023-02-22T02:50:06.479Z,74.26
2023-02-22T02:52:34.245Z,74.18
2023-02-22T02:55:03.702Z,74.32
2023-02-22T02:57:30.180Z,74.50
2023-02-22T02:59:56.553Z,74.58
2023-02-22T03:03:06.620Z,74.70
2023-02-22T03:05:46.974Z,74.60
2023-02-22T03:08:20.322Z,74.54
2023-02-22T03:11:06.670Z,74.52
2023-02-22T03:13:57.875Z,74.60
2023-02-22T03:16:52.558Z,74.74
2023-02-22T03:19:25.129Z,74.78
2023-02-22T03:22:19.699Z,74.84
2023-02-22T03:24:58.590Z,74.95
2023-02-22T03:27:33.449Z,74.84
2023-02-22T03:30:11.781Z,74.85
2023-02-22T03:32:41.812Z,74.81
2023-02-22T03:35:30.734Z,74.84
2023-02-22T03:37:59.953Z,74.83
2023-02-22T03:40:33.343Z,74.80
2023-02-22T03:43:14.106Z,74.74
2023-02-22T03:45:43.484Z,74.89
2023-02-22T03:48:22.096Z,75.05
2023-02-22T03:50:51.840Z,74.89
2023-02-22T03:53:19.767Z,74.86
2023-02-22T03:55:50.992Z,74.88
2023-02-22T03:58:18.472Z,74.96
2023-02-22T04:00:45.005Z,74.88
2023-02-22T04:03:11.796Z,74.97
2023-02-22T04:05:38.625Z,74.83
2023-02-22T04:08:05.877Z,75.05
2023-02-22T04:10:33.091Z,75.14
2023-02-22T04:12:59.816Z,75.13
2023-02-22T04:15:26.438Z,75.28
2023-02-22T04:17:53.145Z,75.17
2023-02-22T04:20:20.117Z,75.05
2023-02-22T04:22:47.072Z,75.12
2023-02-22T04:25:13.423Z,75.06
2023-02-22T04:27:39.871Z,75.10
2023-02-22T04:30:06.844Z,75.33
2023-02-22T04:32:33.289Z,75.20
2023-02-22T04:35:01.232Z,75.22
2023-02-22T04:37:27.682Z,75.52
2023-02-22T04:39:54.301Z,75.38
2023-02-22T04:42:21.004Z,75.60
2023-02-22T04:44:47.485Z,75.49
2023-02-22T04:47:14.464Z,75.59
2023-02-22T04:49:41.037Z,75.27
2023-02-22T04:52:07.632Z,75.52
2023-02-22T04:54:34.149Z,75.60
2023-02-22T04:57:00.648Z,75.67
2023-02-22T04:59:27.197Z,75.63
2023-02-22T05:01:53.785Z,75.68
2023-02-22T05:04:21.244Z,75.70
2023-02-22T05:06:48.033Z,75.37
2023-02-22T05:09:14.628Z,75.53
2023-02-22T05:11:41.267Z,75.34
2023-02-22T05:14:07.796Z,75.45
2023-02-22T05:16:35.356Z,75.72
2023-02-22T05:19:02.233Z,75.56
2023-02-22T05:21:28.788Z,75.55
2023-02-22T05:23:55.416Z,75.57
2023-02-22T05:26:22.001Z,75.59
2023-02-22T05:28:48.453Z,75.65
2023-02-22T05:31:15.411Z,75.68
2023-02-22T05:33:42.686Z,75.62
2023-02-22T05:36:09.448Z,75.85
2023-02-22T05:38:42.641Z,75.60
2023-02-22T05:41:10.542Z,75.37
2023-02-22T05:43:38.239Z,75.57
2023-02-22T05:46:04.956Z,75.62
2023-02-22T05:48:31.597Z,75.59
2023-02-22T05:50:58.013Z,75.75
2023-02-22T05:53:24.417Z,75.76
2023-02-22T05:55:51.298Z,75.99
2023-02-22T05:58:18.037Z,75.89
2023-02-22T06:00:44.657Z,76.11
2023-02-22T06:03:12.340Z,75.86
2023-02-22T06:05:39.328Z,75.84
2023-02-22T06:08:06.637Z,75.74
2023-02-22T06:10:33.247Z,75.84
2023-02-22T06:13:00.721Z,75.77
2023-02-22T06:15:27.985Z,75.89
2023-02-22T06:17:55.555Z,75.92
2023-02-22T06:20:23.144Z,75.96
2023-02-22T06:22:51.528Z,75.88
2023-02-22T06:25:20.646Z,76.01
2023-02-22T06:27:47.543Z,75.94
2023-02-22T06:30:15.599Z,76.02
2023-02-22T06:32:42.106Z,75.82
2023-02-22T06:35:08.932Z,75.78
2023-02-22T06:37:35.319Z,75.83
2023-02-22T06:40:05.479Z,75.94
2023-02-22T06:42:33.123Z,75.90
2023-02-22T06:44:59.703Z,76.02
2023-02-22T06:47:26.424Z,76.06
2023-02-22T06:49:56.748Z,76.15
2023-02-22T06:52:23.594Z,76.24
2023-02-22T06:54:49.904Z,76.14
2023-02-22T06:57:16.920Z,76.28
2023-02-22T06:59:43.574Z,76.11
2023-02-22T07:02:11.923Z,76.25
2023-02-22T07:04:41.011Z,76.20
2023-02-22T07:07:08.965Z,76.14
2023-02-22T07:09:35.663Z,76.18
2023-02-22T07:12:02.064Z,76.35
2023-02-22T07:14:28.477Z,76.37
2023-02-22T07:16:54.911Z,76.38
2023-02-22T07:19:21.621Z,76.38
2023-02-22T07:21:48.194Z,76.30
2023-02-22T07:24:14.566Z,76.38
2023-02-22T07:26:41.841Z,76.37
2023-02-22T07:29:08.321Z,76.63
2023-02-22T07:31:36.038Z,76.51
2023-02-22T07:34:02.630Z,76.62
2023-02-22T07:36:29.131Z,76.79
2023-02-22T07:38:55.928Z,76.82
2023-02-22T07:41:22.486Z,76.74
2023-02-22T07:43:49.042Z,76.77
2023-02-22T07:46:15.632Z,76.88
2023-02-22T07:48:42.321Z,76.53
2023-02-22T07:51:09.476Z,76.71
2023-02-22T07:53:36.090Z,76.62
2023-02-22T07:56:04.684Z,76.64
2023-02-22T07:58:32.855Z,76.76
2023-02-22T08:01:03.329Z,76.83
2023-02-22T08:03:37.296Z,76.83
2023-02-22T08:06:07.088Z,76.64
2023-02-22T08:08:35.866Z,76.61
2023-02-22T08:11:02.912Z,76.38
2023-02-22T08:13:33.140Z,76.43
2023-02-22T08:16:00.614Z,76.33
2023-02-22T08:18:27.178Z,75.89
2023-02-22T08:20:54.571Z,76.04
2023-02-22T08:23:24.640Z,75.61
2023-02-22T08:25:51.352Z,76.05
2023-02-22T08:28:19.390Z,75.69
2023-02-22T08:30:46.220Z,75.63
2023-02-22T08:33:16.148Z,75.74
2023-02-22T08:35:42.834Z,75.65
2023-02-22T08:38:15.145Z,75.60
2023-02-22T08:40:42.012Z,75.56
2023-02-22T08:43:09.277Z,75.28
2023-02-22T08:45:36.322Z,75.42
2023-02-22T08:48:03.257Z,74.77
2023-02-22T08:50:35.288Z,74.66
2023-02-22T08:53:04.151Z,74.28
2023-02-22T08:55:34.082Z,74.76
2023-02-22T08:58:02.633Z,74.33
2023-02-22T09:00:34.965Z,73.99
2023-02-22T09:03:02.947Z,74.36
2023-02-22T09:05:31.658Z,74.28
2023-02-22T09:07:59.561Z,73.82
2023-02-22T09:10:30.276Z,73.91
2023-02-22T09:12:57.725Z,74.07
2023-02-22T09:15:25.518Z,73.61
2023-02-22T09:17:53.168Z,73.19
2023-02-22T09:20:22.204Z,72.79
2023-02-22T09:22:49.332Z,72.41
2023-02-22T09:25:17.708Z,71.61
2023-02-22T09:27:47.505Z,71.95
2023-02-22T09:30:20.061Z,72.45
2023-02-22T09:32:46.841Z,72.73
2023-02-22T09:35:14.206Z,72.67
2023-02-22T09:37:44.438Z,72.73
2023-02-22T09:40:24.284Z,72.63
2023-02-22T09:43:11.447Z,72.41
2023-02-22T09:46:03.210Z,72.65
2023-02-22T09:48:32.728Z,72.27
2023-02-22T09:51:00.946Z,72.24
2023-02-22T09:53:35.740Z,72.41
2023-02-22T09:56:10.602Z,72.42
2023-02-22T09:58:42.649Z,72.12
2023-02-22T10:01:28.686Z,72.01
2023-02-22T10:04:04.417Z,71.94
2023-02-22T10:06:33.167Z,71.85
2023-02-22T10:09:01.092Z,71.58
2023-02-22T10:11:40.392Z,71.43
2023-02-22T10:14:25.332Z,71.52
2023-02-22T10:17:11.277Z,71.65
2023-02-22T10:20:05.719Z,71.61
2023-02-22T10:22:46.538Z,71.59
2023-02-22T10:25:22.395Z,70.38
2023-02-22T10:28:04.396Z,69.28
2023-02-22T10:30:56.217Z,69.58
2023-02-22T10:33:27.126Z,69.53
2023-02-22T10:35:55.219Z,70.43
2023-02-22T10:38:24.721Z,68.94
2023-02-22T10:41:09.592Z,69.28
2023-02-22T10:43:43.140Z,70.20
2023-02-22T10:46:17.741Z,70.39
2023-02-22T10:48:48.192Z,70.34
2023-02-22T10:51:14.713Z,70.40
2023-02-22T10:53:41.443Z,70.02
2023-02-22T10:56:09.756Z,69.78
2023-02-22T10:58:54.969Z,69.73
2023-02-22T11:01:30.299Z,68.23
2023-02-22T11:04:27.478Z,69.24
2023-02-22T11:07:07.314Z,69.34
2023-02-22T11:09:54.830Z,69.66
2023-02-22T11:12:31.500Z,68.25
2023-02-22T11:15:21.846Z,67.69
2023-02-22T11:17:51.262Z,68.26
2023-02-22T11:20:34.178Z,67.38
2023-02-22T11:23:04.802Z,68.05
2023-02-22T11:25:34.777Z,68.34
2023-02-22T11:28:15.469Z,68.26
2023-02-22T11:30:51.064Z,67.94
2023-02-22T11:33:26.344Z,67.62
2023-02-22T11:36:04.372Z,66.70
2023-02-22T11:38:33.666Z,66.60
2023-02-22T11:41:17.483Z,67.13
2023-02-22T11:43:46.926Z,67.70
2023-02-22T11:46:17.350Z,67.57
2023-02-22T11:49:06.182Z,67.29
2023-02-22T11:51:41.959Z,66.60
2023-02-22T11:54:28.169Z,65.90
2023-02-22T11:57:27.547Z,66.78
2023-02-22T11:59:55.128Z,66.04
2023-02-22T12:02:48.781Z,65.88
2023-02-22T12:05:36.678Z,66.16
2023-02-22T12:08:19.272Z,65.62
2023-02-22T12:11:03.060Z,65.78
2023-02-22T12:13:51.514Z,66.08
2023-02-22T12:16:34.915Z,66.05
2023-02-22T12:19:21.551Z,66.60
2023-02-22T12:21:53.798Z,66.41
2023-02-22T12:24:25.199Z,66.46
2023-02-22T12:27:01.079Z,66.41
2023-02-22T12:29:37.070Z,66.58
2023-02-22T12:32:09.536Z,66.57
2023-02-22T12:34:50.191Z,66.56
2023-02-22T12:37:56.066Z,66.30
2023-02-22T12:40:44.632Z,66.16
2023-02-22T12:43:21.956Z,66.00
2023-02-22T12:46:03.909Z,65.86
2023-02-22T12:48:35.370Z,65.65
2023-02-22T12:51:14.639Z,65.79
2023-02-22T12:53:46.128Z,65.26
2023-02-22T12:56:33.391Z,65.31
2023-02-22T12:59:25.633Z,65.80
2023-02-22T13:02:16.453Z,65.50
2023-02-22T13:04:43.674Z,64.87
2023-02-22T13:07:13.229Z,65.22
2023-02-22T13:10:03.572Z,65.81
2023-02-22T13:12:51.985Z,65.54
2023-02-22T13:15:40.982Z,65.60
2023-02-22T13:18:38.504Z,65.57
2023-02-22T13:21:41.723Z,65.01
2023-02-22T13:24:22.909Z,65.28
2023-02-22T13:27:12.347Z,65.16
2023-02-22T13:29:42.298Z,64.78
2023-02-22T13:32:30.225Z,64.78
2023-02-22T13:35:01.649Z,64.42
2023-02-22T13:38:00.761Z,64.07
2023-02-22T13:41:04.642Z,64.26
2023-02-22T13:43:37.650Z,63.29
2023-02-22T13:46:42.360Z,63.59
2023-02-22T13:49:29.935Z,63.29
2023-02-22T13:52:14.598Z,64.02
2023-02-22T13:54:46.040Z,64.63
2023-02-22T13:57:38.781Z,64.65
2023-02-22T14:00:14.735Z,64.44
2023-02-22T14:03:12.569Z,64.19
2023-02-22T14:05:41.157Z,63.88
2023-02-22T14:08:16.791Z,62.97
2023-02-22T14:10:50.441Z,63.38
2023-02-22T14:13:18.894Z,63.77
2023-02-22T14:16:04.195Z,63.14
2023-02-22T14:19:23.043Z,63.68
2023-02-22T14:22:05.140Z,64.03
2023-02-22T14:24:46.684Z,64.04
2023-02-22T14:27:14.157Z,63.60
2023-02-22T14:29:55.913Z,62.78
2023-02-22T14:32:31.319Z,63.25
2023-02-22T14:35:00.613Z,63.52
2023-02-22T14:37:32.376Z,63.30
2023-02-22T14:40:18.052Z,63.59
2023-02-22T14:42:50.226Z,62.99
2023-02-22T14:45:30.058Z,63.29
2023-02-22T14:48:13.034Z,63.37
2023-02-22T14:50:39.737Z,63.16
2023-02-22T14:53:28.397Z,62.80
2023-02-22T14:56:01.954Z,62.54
2023-02-22T14:58:51.877Z,62.82
2023-02-22T15:01:19.646Z,62.95
2023-02-22T15:03:56.004Z,62.91
2023-02-22T15:06:30.729Z,62.51
2023-02-22T15:09:12.095Z,62.69
2023-02-22T15:11:38.954Z,62.75
2023-02-22T15:14:26.564Z,62.72
2023-02-22T15:16:56.462Z,62.44
2023-02-22T15:19:33.939Z,62.62
2023-02-22T15:22:01.674Z,61.64
2023-02-22T15:24:30.731Z,62.25
2023-02-22T15:27:07.026Z,62.72
2023-02-22T15:29:39.594Z,62.40
2023-02-22T15:32:29.128Z,62.79
2023-02-22T15:35:25.621Z,61.84
2023-02-22T15:38:08.770Z,61.71
2023-02-22T15:40:42.334Z,61.39
2023-02-22T15:43:18.171Z,61.69
2023-02-22T15:45:45.552Z,61.72
2023-02-22T15:48:14.050Z,61.95
2023-02-22T15:51:03.804Z,61.92
2023-02-22T15:53:39.390Z,61.63
2023-02-22T15:56:10.341Z,61.35
2023-02-22T15:58:38.464Z,61.65
2023-02-22T16:01:13.763Z,61.72
2023-02-22T16:03:53.972Z,61.53
2023-02-22T16:06:32.969Z,61.88
2023-02-22T16:09:02.015Z,62.55
2023-02-22T16:11:43.420Z,61.89
2023-02-22T16:14:26.422Z,61.55
2023-02-22T16:17:35.053Z,62.05
2023-02-22T16:20:21.529Z,61.73
2023-02-22T16:22:49.537Z,61.70
2023-02-22T16:25:20.829Z,61.80
2023-02-22T16:27:58.014Z,61.84
2023-02-22T16:30:34.309Z,62.02
2023-02-22T16:33:15.994Z,62.04
2023-02-22T16:35:51.173Z,61.91
2023-02-22T16:38:18.362Z,61.89
2023-02-22T16:40:55.564Z,61.99
2023-02-22T16:43:24.630Z,62.57
2023-02-22T16:45:52.322Z,62.54
2023-02-22T16:48:23.976Z,62.93
2023-02-22T16:50:55.396Z,62.76
2023-02-22T16:53:24.217Z,62.75
2023-02-22T16:55:57.039Z,62.48
2023-02-22T16:58:27.323Z,63.14
2023-02-22T17:00:56.629Z,63.13
2023-02-22T17:03:23.697Z,63.02
2023-02-22T17:05:50.772Z,63.20
2023-02-22T17:08:17.329Z,63.35
2023-02-22T17:10:45.732Z,63.34
2023-02-22T17:13:22.397Z,63.00
2023-02-22T17:15:49.806Z,62.71
2023-02-22T17:18:22.106Z,63.13
2023-02-22T17:20:52.390Z,62.56
2023-02-22T17:23:20.361Z,62.36
2023-02-22T17:25:55.432Z,62.56
2023-02-22T17:28:23.792Z,62.87
2023-02-22T17:30:51.509Z,62.73
2023-02-22T17:33:22.115Z,62.36
2023-02-22T17:35:49.090Z,62.35
2023-02-22T17:38:18.355Z,62.67
2023-02-22T17:40:54.196Z,63.10
2023-02-22T17:43:21.276Z,62.62
2023-02-22T17:45:47.951Z,62.36
2023-02-22T17:48:14.995Z,62.43
2023-02-22T17:50:43.103Z,62.13
2023-02-22T17:53:12.943Z,62.12
2023-02-22T17:55:41.807Z,62.52
2023-02-22T17:58:13.815Z,62.58
2023-02-22T18:00:43.538Z,62.41
2023-02-22T18:03:13.058Z,62.85
2023-02-22T18:05:43.466Z,61.84
2023-02-22T18:08:10.337Z,62.22
2023-02-22T18:10:37.171Z,62.37
2023-02-22T18:13:04.165Z,62.35
2023-02-22T18:15:35.076Z,62.02
2023-02-22T18:18:04.616Z,62.47
2023-02-22T18:20:37.632Z,62.57
2023-02-22T18:23:08.318Z,62.90
2023-02-22T18:25:36.043Z,63.02
2023-02-22T18:28:05.549Z,62.62
2023-02-22T18:30:35.271Z,63.14
2023-02-22T18:33:03.204Z,63.33
2023-02-22T18:35:30.681Z,63.79
2023-02-22T18:37:57.351Z,63.69
2023-02-22T18:40:24.020Z,64.07
2023-02-22T18:42:50.568Z,64.18
2023-02-22T18:45:17.687Z,63.87
2023-02-22T18:47:44.996Z,64.45
2023-02-22T18:50:12.478Z,64.24
2023-02-22T18:52:45.752Z,64.63
2023-02-22T18:55:18.351Z,64.25
2023-02-22T18:57:45.614Z,64.39
2023-02-22T19:00:15.408Z,64.77
2023-02-22T19:02:42.933Z,64.67
2023-02-22T19:05:16.755Z,64.92
2023-02-22T19:07:44.754Z,65.23
2023-02-22T19:10:11.577Z,65.18
2023-02-22T19:12:37.991Z,65.29
2023-02-22T19:15:05.103Z,65.54
2023-02-22T19:17:35.800Z,65.35
2023-02-22T19:20:07.144Z,65.53
2023-02-22T19:22:34.374Z,65.35
2023-02-22T19:25:01.707Z,65.60
2023-02-22T19:27:33.443Z,65.74
2023-02-22T19:30:00.008Z,66.34
2023-02-22T19:32:26.802Z,66.29
2023-02-22T19:35:01.296Z,66.20
2023-02-22T19:37:33.517Z,66.01
2023-02-22T19:40:01.904Z,66.15
2023-02-22T19:42:29.154Z,66.31
2023-02-22T19:44:55.598Z,66.10
2023-02-22T19:47:22.317Z,66.10
2023-02-22T19:49:49.639Z,66.04
2023-02-22T19:52:16.616Z,66.02
2023-02-22T19:54:44.059Z,65.90
2023-02-22T19:57:11.178Z,66.10
2023-02-22T19:59:38.464Z,66.14
2023-02-22T20:02:05.230Z,66.19
2023-02-22T20:04:31.932Z,66.56
2023-02-22T20:06:58.552Z,66.34
2023-02-22T20:09:29.262Z,66.54
2023-02-22T20:11:56.481Z,66.64
2023-02-22T20:14:25.432Z,66.53
2023-02-22T20:16:53.163Z,66.51
2023-02-22T20:19:22.135Z,66.64
2023-02-22T20:21:49.449Z,66.61
2023-02-22T20:24:17.801Z,66.92
2023-02-22T20:26:44.832Z,66.97
2023-02-22T20:29:12.199Z,66.74
2023-02-22T20:31:41.007Z,66.51
2023-02-22T20:34:09.685Z,66.65
2023-02-22T20:36:40.889Z,66.59
2023-02-22T20:39:12.734Z,66.57
2023-02-22T20:41:41.699Z,66.87
2023-02-22T20:44:11.299Z,66.87
2023-02-22T20:46:37.993Z,66.78
2023-02-22T20:49:07.713Z,66.85
2023-02-22T20:51:34.793Z,66.82
2023-02-22T20:54:01.986Z,67.01
2023-02-22T20:56:31.269Z,66.96
2023-02-22T20:58:59.831Z,67.25
2023-02-22T21:01:26.914Z,67.27
2023-02-22T21:03:53.913Z,67.28
2023-02-22T21:06:21.931Z,67.37
2023-02-22T21:08:54.259Z,67.39
2023-02-22T21:11:22.465Z,67.13
2023-02-22T21:13:50.449Z,67.28
2023-02-22T21:16:26.157Z,66.85
2023-02-22T21:18:54.150Z,67.29
2023-02-22T21:21:22.015Z,67.12
2023-02-22T21:23:50.684Z,67.00
2023-02-22T21:26:23.228Z,67.02
2023-02-22T21:28:54.409Z,67.21
2023-02-22T21:31:23.996Z,67.43
2023-02-22T21:33:52.693Z,67.18
2023-02-22T21:36:24.625Z,67.28
2023-02-22T21:38:56.606Z,67.39
2023-02-22T21:41:27.140Z,67.45
2023-02-22T21:43:55.066Z,67.47
2023-02-22T21:46:22.909Z,67.37
2023-02-22T21:48:50.029Z,67.60
2023-02-22T21:51:21.372Z,67.80
2023-02-22T21:53:51.681Z,67.60
2023-02-22T21:56:23.514Z,67.73
2023-02-22T21:59:00.708Z,67.51
2023-02-22T22:01:28.949Z,67.44
2023-02-22T22:03:58.875Z,67.40
2023-02-22T22:06:29.870Z,67.28
2023-02-22T22:08:57.830Z,67.33
2023-02-22T22:11:24.968Z,66.98
2023-02-22T22:13:59.010Z,66.88
2023-02-22T22:16:29.623Z,67.14
2023-02-22T22:18:56.790Z,67.25
2023-02-22T22:21:24.543Z,67.04
2023-02-22T22:23:56.565Z,67.45
2023-02-22T22:26:24.184Z,67.04
2023-02-22T22:28:58.043Z,67.40
2023-02-22T22:31:26.351Z,67.49
2023-02-22T22:33:54.787Z,67.62
2023-02-22T22:36:22.523Z,67.31
2023-02-22T22:38:52.298Z,67.20
2023-02-22T22:41:21.545Z,67.58
2023-02-22T22:43:48.872Z,67.69
2023-02-22T22:46:17.278Z,67.91
2023-02-22T22:48:46.328Z,67.72
2023-02-22T22:51:17.624Z,67.63
2023-02-22T22:53:46.085Z,67.59
2023-02-22T22:56:20.629Z,67.77
2023-02-22T22:58:49.769Z,67.44
2023-02-22T23:01:19.352Z,67.40
2023-02-22T23:03:54.199Z,67.66
2023-02-22T23:06:30.255Z,67.43
2023-02-22T23:08:59.328Z,67.52
2023-02-22T23:11:28.217Z,67.71
2023-02-22T23:13:55.901Z,67.56
2023-02-22T23:16:24.003Z,67.59
2023-02-22T23:18:50.780Z,67.56
2023-02-22T23:21:19.197Z,67.86
2023-02-22T23:23:50.857Z,67.97
2023-02-22T23:26:17.634Z,68.01
2023-02-22T23:28:47.129Z,68.04
2023-02-22T23:31:16.539Z,68.17
2023-02-22T23:33:44.765Z,68.20
2023-02-22T23:36:11.907Z,68.12
2023-02-22T23:38:41.437Z,68.11
2023-02-22T23:41:10.615Z,68.03
2023-02-22T23:43:41.371Z,68.05
2023-02-22T23:46:11.514Z,67.97
2023-02-22T23:48:40.144Z,68.09
2023-02-22T23:51:10.444Z,68.09
2023-02-22T23:53:38.582Z,68.09
2023-02-22T23:56:09.349Z,68.23
2023-02-22T23:58:37.436Z,68.25
